createdAt,value
2023-03-29T00:01:13.078Z,4.78
2023-03-29T00:11:35.599Z,3.65
2023-03-29T00:21:37.908Z,5.40
2023-03-29T00:31:40.311Z,15.73
2023-03-29T05:05:09.151Z,54.33
2023-03-29T05:15:11.840Z,56.10
2023-03-29T05:25:14.381Z,54.85
2023-03-29T05:35:16.882Z,52.55
2023-03-29T05:45:20.567Z,44.22
2023-03-29T05:55:23.960Z,61.90
2023-03-29T06:05:26.786Z,66.40
2023-03-29T06:15:30.438Z,56.20
2023-03-29T06:25:33.204Z,55.35
2023-03-29T06:35:37.248Z,70.85
2023-03-29T06:45:40.399Z,44.13
2023-03-29T06:55:42.984Z,54.72
2023-03-29T07:05:45.508Z,45.63
2023-03-29T07:15:47.912Z,48.38
2023-03-29T07:25:51.480Z,39.90
2023-03-29T07:35:53.872Z,37.97
2023-03-29T07:45:59.054Z,31.13
2023-03-29T07:56:01.979Z,18.40
2023-03-29T08:06:05.049Z,11.10
2023-03-29T08:16:09.125Z,7.25
2023-03-29T08:26:11.675Z,5.28
2023-03-29T08:36:14.104Z,5.53
2023-03-29T08:46:34.585Z,6.60
2023-03-29T08:56:40.895Z,6.88
2023-03-29T09:06:43.385Z,5.82
2023-03-29T09:16:59.866Z,4.40
2023-03-29T09:27:14.707Z,4.47
2023-03-29T09:37:32.274Z,4.68
2023-03-29T09:47:48.025Z,5.60
2023-03-29T09:57:50.580Z,3.63
2023-03-29T10:07:57.860Z,9.57
2023-03-29T10:18:06.027Z,4.38
2023-03-29T10:28:13.742Z,8.00
2023-03-29T10:38:19.461Z,8.67
2023-03-29T10:48:30.125Z,5.38
2023-03-29T10:59:01.604Z,3.75
2023-03-29T11:09:42.553Z,4.10
2023-03-29T11:20:23.498Z,4.65
2023-03-29T11:30:35.474Z,8.35
2023-03-29T11:40:46.854Z,4.32
2023-03-29T11:50:59.007Z,2.40
2023-03-29T12:01:09.518Z,2.42
2023-03-29T12:11:18.805Z,4.18
2023-03-29T12:21:23.376Z,6.13
2023-03-29T12:31:37.746Z,3.30
2023-03-29T12:41:41.895Z,4.97
2023-03-29T12:51:44.345Z,2.88
2023-03-29T13:02:22.324Z,1.95
2023-03-29T13:12:36.086Z,3.13
2023-03-29T13:22:52.506Z,2.83
2023-03-29T13:33:24.463Z,8.32
2023-03-29T13:43:46.158Z,4.45
2023-03-29T13:54:03.915Z,9.52
2023-03-29T14:04:12.733Z,3.00
2023-03-29T14:14:15.464Z,2.60
2023-03-29T14:24:28.192Z,43.35
2023-03-29T14:34:30.777Z,22.55
2023-03-29T14:44:34.970Z,10.10
2023-03-29T14:54:38.259Z,34.97
2023-03-29T15:04:41.732Z,17.40
2023-03-29T15:14:44.198Z,42.10
2023-03-29T15:24:49.051Z,66.15
2023-03-29T15:35:08.129Z,22.75
2023-03-29T15:45:18.902Z,16.90
2023-03-29T15:55:21.271Z,9.02
2023-03-29T16:05:23.856Z,17.63
2023-03-29T16:15:27.456Z,6.47
2023-03-29T16:25:30.082Z,10.10
2023-03-29T16:35:34.559Z,15.48
2023-03-29T16:45:37.374Z,39.70
2023-03-29T16:55:40.615Z,9.40
2023-03-29T17:05:51.057Z,9.00
2023-03-29T17:15:55.043Z,8.02
2023-03-29T17:25:57.821Z,10.30
2023-03-29T17:36:00.636Z,10.48
2023-03-29T17:46:03.589Z,16.10
2023-03-29T17:56:07.363Z,9.20
2023-03-29T18:06:09.765Z,7.43
2023-03-29T18:16:12.407Z,9.02
2023-03-29T18:26:16.197Z,8.55
2023-03-29T18:36:18.638Z,11.63
2023-03-29T18:46:21.895Z,12.68
2023-03-29T18:56:24.891Z,16.17
2023-03-29T19:06:27.787Z,9.38
2023-03-29T19:16:30.571Z,6.53
2023-03-29T19:26:33.686Z,6.13
2023-03-29T19:36:36.612Z,11.82
2023-03-29T19:46:39.169Z,9.10
2023-03-29T19:56:43.134Z,9.95
2023-03-29T20:06:46.626Z,10.80
2023-03-29T20:16:51.146Z,6.38
2023-03-29T20:26:54.173Z,7.40
2023-03-29T20:40:13.737Z,8.98
2023-03-29T20:50:19.173Z,7.43
2023-03-29T21:00:22.681Z,7.03
2023-03-29T21:10:26.670Z,5.68
2023-03-29T21:20:29.095Z,9.02
2023-03-29T21:30:32.453Z,6.65
2023-03-29T21:40:36.415Z,6.45
2023-03-29T21:50:39.128Z,8.70
2023-03-29T22:00:42.373Z,7.10
2023-03-29T22:10:45.088Z,6.72
2023-03-29T22:20:48.874Z,8.60
2023-03-29T22:30:51.962Z,6.70
2023-03-29T22:40:55.774Z,7.03
2023-03-29T22:50:58.752Z,7.75
2023-03-29T23:01:02.201Z,6.70
2023-03-29T23:11:05.511Z,5.63
2023-03-29T23:21:09.762Z,6.70
2023-03-29T23:31:18.613Z,8.90
2023-03-29T23:41:21.276Z,7.55
2023-03-29T23:51:28.608Z,5.68
